createdAt,value
2023-03-13T00:03:59.735Z,7.35
2023-03-13T00:09:26.744Z,7.36
2023-03-13T00:14:50.742Z,7.39
2023-03-13T00:20:23.735Z,7.36
2023-03-13T00:25:48.790Z,7.46
2023-03-13T00:31:20.850Z,7.50
2023-03-13T00:36:48.747Z,7.49
2023-03-13T00:42:13.724Z,7.51
2023-03-13T00:47:39.784Z,7.44
2023-03-13T00:53:06.774Z,7.31
2023-03-13T00:58:33.737Z,7.27
2023-03-13T01:04:00.803Z,7.23
2023-03-13T01:09:28.731Z,7.21
2023-03-13T01:14:52.985Z,7.22
2023-03-13T01:20:19.791Z,7.21
2023-03-13T01:25:57.510Z,7.25
2023-03-13T01:37:05.777Z,7.22
2023-03-13T01:42:32.770Z,7.26
2023-03-13T01:47:57.753Z,7.26
2023-03-13T01:53:36.798Z,7.27
2023-03-13T01:59:10.786Z,7.25
2023-03-13T02:04:37.795Z,7.27
2023-03-13T02:10:05.999Z,7.24
2023-03-13T02:15:36.049Z,7.25
2023-03-13T02:21:05.803Z,7.32
2023-03-13T02:26:32.871Z,7.40
2023-03-13T02:31:58.775Z,7.34
2023-03-13T02:37:37.828Z,7.41
2023-03-13T02:43:12.807Z,7.41
2023-03-13T02:48:47.074Z,7.37
2023-03-13T02:54:26.788Z,7.50
2023-03-13T03:00:04.825Z,7.48
2023-03-13T03:05:51.842Z,7.52
2023-03-13T03:11:18.070Z,7.51
2023-03-13T03:16:52.913Z,7.66
2023-03-13T03:22:19.806Z,7.68
2023-03-13T03:27:45.822Z,7.79
2023-03-13T03:33:18.892Z,7.89
2023-03-13T03:38:42.833Z,8.05
2023-03-13T03:44:09.809Z,8.02
2023-03-13T03:49:48.025Z,8.17
2023-03-13T03:55:14.878Z,8.27
2023-03-13T11:27:13.193Z,13.84
2023-03-13T11:32:48.115Z,13.94
2023-03-13T11:38:14.080Z,14.23
2023-03-13T11:43:53.148Z,14.22
2023-03-13T11:49:36.104Z,14.62
2023-03-13T11:55:13.068Z,14.90
2023-03-13T12:00:50.144Z,14.99
2023-03-13T12:06:28.371Z,15.18
2023-03-13T12:11:57.096Z,15.05
2023-03-13T12:17:32.110Z,15.10
2023-03-13T12:23:02.081Z,15.06
2023-03-13T12:28:45.541Z,15.06
2023-03-13T12:34:22.128Z,15.02
2023-03-13T12:39:54.391Z,15.04
2023-03-13T12:45:26.263Z,15.02
2023-03-13T12:51:07.141Z,15.03
2023-03-13T12:56:47.120Z,15.07
2023-03-13T13:02:31.165Z,14.89
2023-03-13T13:08:06.354Z,14.82
2023-03-13T13:13:56.451Z,14.71
2023-03-13T13:19:51.183Z,14.71
2023-03-13T13:25:38.169Z,14.64
2023-03-13T13:31:06.245Z,14.85
2023-03-13T13:37:03.189Z,15.00
2023-03-13T13:42:59.178Z,14.94
2023-03-13T13:48:39.203Z,14.96
2023-03-13T13:54:07.261Z,15.00
2023-03-13T13:59:55.210Z,15.14
2023-03-13T14:05:31.289Z,15.07
2023-03-13T14:10:58.344Z,14.94
2023-03-13T14:16:35.285Z,15.01
2023-03-13T14:22:00.149Z,14.99
2023-03-13T14:27:34.192Z,14.86
2023-03-13T14:33:03.261Z,14.91
2023-03-13T14:38:37.272Z,15.14
2023-03-13T14:44:02.228Z,15.49
2023-03-13T14:49:40.335Z,15.92
2023-03-13T14:55:09.200Z,15.79
2023-03-13T15:00:56.257Z,15.52
2023-03-13T15:06:32.189Z,15.56
2023-03-13T15:12:09.853Z,15.80
2023-03-13T15:23:01.334Z,15.48
2023-03-13T15:28:30.664Z,15.52
2023-03-13T15:34:11.410Z,15.53
2023-03-13T15:40:16.282Z,15.41
2023-03-13T15:45:41.769Z,15.82
2023-03-13T15:51:09.337Z,15.97
2023-03-13T15:56:40.862Z,15.91
2023-03-13T16:02:05.289Z,15.71
2023-03-13T16:07:33.339Z,15.60
2023-03-13T16:13:02.785Z,15.47
2023-03-13T16:18:50.338Z,15.40
2023-03-13T16:24:17.273Z,15.39
2023-03-13T16:29:47.440Z,15.36
2023-03-13T16:35:14.400Z,15.29
2023-03-13T16:40:42.762Z,15.26
2023-03-13T16:46:14.390Z,15.22
2023-03-13T16:51:43.907Z,15.22
2023-03-13T16:57:11.352Z,15.31
2023-03-13T17:02:38.357Z,15.29
2023-03-13T17:08:05.352Z,15.17
2023-03-13T17:13:36.041Z,15.19
2023-03-13T17:19:06.258Z,15.27
2023-03-13T17:24:32.339Z,15.17
2023-03-13T17:30:04.912Z,14.70
2023-03-13T20:59:02.453Z,11.63
2023-03-13T21:04:27.415Z,11.53
2023-03-13T21:09:51.570Z,11.54
2023-03-13T21:15:26.406Z,11.59
2023-03-13T21:20:51.519Z,11.56
2023-03-13T21:26:15.456Z,11.43
2023-03-13T21:31:43.486Z,11.30
2023-03-13T21:37:09.398Z,11.23
2023-03-13T21:42:35.500Z,11.24
2023-03-13T21:48:03.483Z,11.29
2023-03-13T21:53:28.425Z,11.29
2023-03-13T21:59:00.470Z,11.33
2023-03-13T22:04:28.394Z,11.21
2023-03-13T22:09:52.507Z,11.23
2023-03-13T22:15:19.469Z,11.30
2023-03-13T22:20:46.493Z,11.47
2023-03-13T22:26:11.478Z,11.48
2023-03-13T22:31:35.473Z,11.38
2023-03-13T22:37:03.744Z,10.96
2023-03-13T22:42:27.482Z,11.44
2023-03-13T22:47:52.503Z,11.31
2023-03-13T22:53:21.441Z,11.27
2023-03-13T22:58:47.479Z,11.17
2023-03-13T23:04:11.535Z,9.91
2023-03-13T23:09:44.830Z,9.79
2023-03-13T23:15:26.538Z,9.76
2023-03-13T23:20:55.756Z,9.74
2023-03-13T23:26:28.513Z,9.73
2023-03-13T23:31:56.538Z,9.67
2023-03-13T23:37:27.451Z,9.68
2023-03-13T23:42:54.525Z,9.66
2023-03-13T23:48:22.516Z,9.66
2023-03-13T23:53:48.456Z,9.65
2023-03-13T23:59:13.521Z,9.61
